createdAt,value
2019-05-07T00:00:08.330Z,7.58
2019-05-07T00:02:42.708Z,7.57
2019-05-07T00:05:14.045Z,7.60
2019-05-07T00:07:45.904Z,7.67
2019-05-07T00:10:17.881Z,7.63
2019-05-07T00:12:51.503Z,7.40
2019-05-07T00:15:24.300Z,7.54
2019-05-07T00:17:56.680Z,7.57
2019-05-07T00:20:28.583Z,7.53
2019-05-07T00:23:02.744Z,7.48
2019-05-07T00:25:33.946Z,7.43
2019-05-07T00:28:05.882Z,7.43
2019-05-07T00:30:37.762Z,7.38
2019-05-07T00:33:09.806Z,7.30
2019-05-07T00:35:53.023Z,7.28
2019-05-07T00:38:26.288Z,7.23
2019-05-07T00:41:23.160Z,7.13
2019-05-07T00:43:57.023Z,7.10
2019-05-07T00:46:32.145Z,6.94
2019-05-07T00:49:04.184Z,6.86
2019-05-07T00:51:36.313Z,6.90
2019-05-07T00:54:08.229Z,6.83
2019-05-07T00:56:40.245Z,6.78
2019-05-07T00:59:13.095Z,6.72
2019-05-07T01:01:45.177Z,6.62
2019-05-07T01:04:17.033Z,6.51
2019-05-07T01:06:48.902Z,6.50
2019-05-07T01:09:22.891Z,6.53
2019-05-07T01:11:54.356Z,6.44
2019-05-07T01:14:26.240Z,6.49
2019-05-07T01:16:58.120Z,6.41
2019-05-07T01:19:29.972Z,6.39
2019-05-07T01:22:03.195Z,6.43
2019-05-07T01:24:35.176Z,6.31
2019-05-07T01:27:06.991Z,6.23
2019-05-07T01:29:38.838Z,6.18
2019-05-07T01:32:30.345Z,6.11
2019-05-07T01:35:07.410Z,6.11
2019-05-07T01:37:39.280Z,6.06
2019-05-07T01:40:12.253Z,6.03
2019-05-07T01:42:44.560Z,5.94
2019-05-07T01:45:16.894Z,5.98
2019-05-07T01:47:50.271Z,6.02
2019-05-07T01:50:22.913Z,6.00
2019-05-07T01:52:54.764Z,6.03
2019-05-07T01:55:26.548Z,5.97
2019-05-07T01:57:58.440Z,5.98
2019-05-07T02:00:30.237Z,6.01
2019-05-07T02:03:09.359Z,6.07
2019-05-07T02:05:50.139Z,6.20
2019-05-07T02:08:42.335Z,6.12
2019-05-07T02:11:16.740Z,5.93
2019-05-07T02:13:48.526Z,5.91
2019-05-07T02:16:21.833Z,5.88
2019-05-07T02:18:53.690Z,5.88
2019-05-07T02:21:25.596Z,5.96
2019-05-07T02:23:57.395Z,5.86
2019-05-07T02:26:32.167Z,5.75
2019-05-07T02:29:04.079Z,5.80
2019-05-07T02:31:35.924Z,5.77
2019-05-07T02:34:07.791Z,5.72
2019-05-07T02:36:43.248Z,5.66
2019-05-07T02:39:23.940Z,5.52
2019-05-07T02:41:54.575Z,5.41
2019-05-07T02:44:26.446Z,5.33
2019-05-07T02:47:06.762Z,5.30
2019-05-07T02:49:53.611Z,5.32
2019-05-07T02:52:45.619Z,5.26
2019-05-07T02:55:26.059Z,5.31
2019-05-07T02:57:57.934Z,5.29
2019-05-07T03:00:29.784Z,5.35
2019-05-07T03:03:04.163Z,5.31
2019-05-07T03:05:35.335Z,5.20
2019-05-07T03:08:07.250Z,5.10
2019-05-07T03:10:39.122Z,5.01
2019-05-07T03:13:13.763Z,4.91
2019-05-07T03:15:44.700Z,4.85
2019-05-07T03:18:18.937Z,4.90
2019-05-07T03:21:17.939Z,4.83
2019-05-07T03:24:14.389Z,4.73
2019-05-07T03:26:47.119Z,4.78
2019-05-07T03:29:24.031Z,4.82
2019-05-07T03:31:58.506Z,4.74
2019-05-07T03:34:37.546Z,4.68
2019-05-07T03:37:13.538Z,4.69
2019-05-07T03:39:44.933Z,4.74
2019-05-07T03:42:16.804Z,4.70
2019-05-07T03:45:13.462Z,4.82
2019-05-07T03:47:47.362Z,4.83
2019-05-07T03:50:19.173Z,4.88
2019-05-07T03:52:50.974Z,4.94
2019-05-07T03:55:23.436Z,4.90
2019-05-07T03:57:55.455Z,4.87
2019-05-07T04:00:27.648Z,4.97
2019-05-07T04:02:59.529Z,5.01
2019-05-07T04:05:34.254Z,5.05
2019-05-07T04:08:04.954Z,5.14
2019-05-07T04:10:36.832Z,5.23
2019-05-07T04:13:08.673Z,5.26
2019-05-07T04:15:43.889Z,5.32
2019-05-07T04:18:14.661Z,5.39
2019-05-07T04:20:46.630Z,5.44
2019-05-07T04:23:18.505Z,5.45
2019-05-07T04:26:09.204Z,5.49
2019-05-07T04:28:59.957Z,5.53
2019-05-07T04:31:35.931Z,5.54
2019-05-07T04:34:16.185Z,5.62
2019-05-07T04:36:53.172Z,5.68
2019-05-07T04:39:23.499Z,5.73
2019-05-07T04:41:55.450Z,5.65
2019-05-07T04:44:27.232Z,5.67
2019-05-07T04:46:59.024Z,5.60
2019-05-07T04:49:33.189Z,5.61
2019-05-07T04:52:15.312Z,5.64
2019-05-07T04:54:46.621Z,5.63
2019-05-07T04:57:27.554Z,5.77
2019-05-07T05:00:02.923Z,5.78
2019-05-07T05:03:04.347Z,5.88
2019-05-07T05:05:36.154Z,6.03
2019-05-07T05:08:08.010Z,6.17
2019-05-07T05:10:39.794Z,6.21
2019-05-07T05:13:12.982Z,6.25
2019-05-07T05:15:45.014Z,6.27
2019-05-07T05:18:16.893Z,6.33
2019-05-07T05:21:05.695Z,6.43
2019-05-07T05:23:56.466Z,6.48
2019-05-07T05:26:28.308Z,6.50
2019-05-07T05:29:02.283Z,6.64
2019-05-07T05:31:33.688Z,6.60
2019-05-07T05:34:05.536Z,6.66
2019-05-07T05:36:37.375Z,6.71
2019-05-07T05:39:09.775Z,6.82
2019-05-07T05:41:43.448Z,6.92
2019-05-07T05:44:32.159Z,6.91
2019-05-07T05:47:04.028Z,6.97
2019-05-07T05:49:35.840Z,7.04
2019-05-07T05:52:26.554Z,7.17
2019-05-07T05:55:02.636Z,7.11
2019-05-07T05:57:56.237Z,7.05
2019-05-07T06:00:47.503Z,7.04
2019-05-07T06:03:32.261Z,7.06
2019-05-07T06:06:21.969Z,7.13
2019-05-07T06:09:04.224Z,7.21
2019-05-07T06:11:54.227Z,7.28
2019-05-07T06:14:47.823Z,7.35
2019-05-07T06:17:56.646Z,7.43
2019-05-07T06:20:42.854Z,7.48
2019-05-07T06:23:52.822Z,7.56
2019-05-07T06:26:24.782Z,7.54
2019-05-07T06:28:57.553Z,7.61
2019-05-07T06:31:29.321Z,7.60
2019-05-07T06:34:01.887Z,7.69
2019-05-07T06:36:35.475Z,7.61
2019-05-07T06:39:16.968Z,7.67
2019-05-07T06:42:05.993Z,7.87
2019-05-07T06:44:38.001Z,7.89
2019-05-07T06:47:10.356Z,8.04
2019-05-07T06:49:42.813Z,8.16
2019-05-07T06:52:14.732Z,8.01
2019-05-07T06:54:46.688Z,8.07
2019-05-07T06:57:18.581Z,7.96
2019-05-07T06:59:54.098Z,7.96
2019-05-07T07:02:41.816Z,8.10
2019-05-07T07:05:42.545Z,8.25
2019-05-07T07:08:33.496Z,8.19
2019-05-07T07:11:15.571Z,7.95
2019-05-07T07:13:47.425Z,7.95
2019-05-07T07:16:19.286Z,8.11
2019-05-07T07:18:54.953Z,8.17
2019-05-07T07:21:24.722Z,8.26
2019-05-07T07:23:56.567Z,8.35
2019-05-07T07:26:28.625Z,8.40
2019-05-07T07:29:01.987Z,8.32
2019-05-07T07:31:52.788Z,8.33
2019-05-07T07:34:26.015Z,8.43
2019-05-07T07:37:15.726Z,8.64
2019-05-07T07:39:46.648Z,8.83
2019-05-07T07:42:18.442Z,8.90
2019-05-07T07:44:52.994Z,8.97
2019-05-07T07:47:24.807Z,9.04
2019-05-07T07:49:56.599Z,9.08
2019-05-07T07:52:28.469Z,9.07
2019-05-07T07:55:02.187Z,9.13
2019-05-07T07:57:44.394Z,9.17
2019-05-07T08:00:35.567Z,9.18
2019-05-07T08:03:09.417Z,9.25
2019-05-07T08:05:42.714Z,9.30
2019-05-07T08:08:14.724Z,9.38
2019-05-07T08:10:46.644Z,9.31
2019-05-07T08:13:18.432Z,9.22
2019-05-07T08:15:51.942Z,9.32
2019-05-07T08:18:23.983Z,9.50
2019-05-07T08:20:55.914Z,9.56
2019-05-07T08:23:27.779Z,9.67
2019-05-07T08:25:59.664Z,9.73
2019-05-07T08:28:32.047Z,9.82
2019-05-07T08:31:22.580Z,9.98
2019-05-07T08:34:02.083Z,10.30
2019-05-07T08:36:36.449Z,10.24
2019-05-07T08:39:09.023Z,10.25
2019-05-07T08:41:42.339Z,10.19
2019-05-07T08:44:18.674Z,10.29
2019-05-07T08:47:02.700Z,10.50
2019-05-07T08:49:39.540Z,10.66
2019-05-07T08:52:08.644Z,10.62
2019-05-07T08:54:42.679Z,10.55
2019-05-07T08:57:14.633Z,10.33
2019-05-07T09:00:00.069Z,10.28
2019-05-07T09:02:22.411Z,10.31
2019-05-07T09:04:54.422Z,10.11
2019-05-07T09:07:26.434Z,10.08
2019-05-07T09:09:58.424Z,10.05
2019-05-07T09:12:31.880Z,10.19
2019-05-07T09:15:05.110Z,10.20
2019-05-07T09:17:37.327Z,10.36
2019-05-07T09:20:09.403Z,10.60
2019-05-07T09:22:42.774Z,10.55
2019-05-07T09:25:15.237Z,10.46
2019-05-07T09:27:52.375Z,10.58
2019-05-07T09:30:43.686Z,10.53
2019-05-07T09:33:32.463Z,10.80
2019-05-07T09:36:07.491Z,10.95
2019-05-07T09:38:49.748Z,10.76
2019-05-07T09:41:28.468Z,11.12
2019-05-07T09:44:02.989Z,11.15
2019-05-07T09:46:37.268Z,11.30
2019-05-07T09:49:12.044Z,11.35
2019-05-07T09:51:45.087Z,11.45
2019-05-07T09:54:17.047Z,11.51
2019-05-07T09:56:49.191Z,11.51
2019-05-07T09:59:21.926Z,11.64
2019-05-07T10:02:05.004Z,11.63
2019-05-07T10:04:44.906Z,11.56
2019-05-07T10:07:16.959Z,11.19
2019-05-07T10:09:48.902Z,11.27
2019-05-07T10:12:36.489Z,11.22
2019-05-07T10:15:09.260Z,11.12
2019-05-07T10:17:49.041Z,11.17
2019-05-07T10:20:22.777Z,11.17
2019-05-07T10:22:54.786Z,11.52
2019-05-07T10:25:28.782Z,11.93
2019-05-07T10:28:01.958Z,12.34
2019-05-07T10:30:35.040Z,12.42
2019-05-07T10:33:07.035Z,12.73
2019-05-07T10:35:39.116Z,13.32
2019-05-07T10:38:12.451Z,13.36
2019-05-07T10:40:44.782Z,13.02
2019-05-07T10:43:16.680Z,13.04
2019-05-07T10:46:13.240Z,13.36
2019-05-07T10:48:55.345Z,13.37
2019-05-07T10:51:28.563Z,13.79
2019-05-07T10:54:02.226Z,13.64
2019-05-07T10:56:35.624Z,13.97
2019-05-07T10:59:07.804Z,14.41
2019-05-07T11:01:45.283Z,14.08
2019-05-07T11:04:18.166Z,13.85
2019-05-07T11:06:52.163Z,13.56
2019-05-07T11:09:24.078Z,13.45
2019-05-07T11:11:56.537Z,13.77
2019-05-07T11:14:28.505Z,14.27
2019-05-07T11:17:24.048Z,14.31
2019-05-07T11:19:56.143Z,14.55
2019-05-07T11:22:28.053Z,15.00
2019-05-07T11:25:03.003Z,15.00
2019-05-07T11:27:36.277Z,15.31
2019-05-07T11:30:08.983Z,14.78
2019-05-07T11:32:42.965Z,13.92
2019-05-07T11:35:16.131Z,13.33
2019-05-07T11:37:48.411Z,13.56
2019-05-07T11:40:22.682Z,13.26
2019-05-07T11:43:15.777Z,12.97
2019-05-07T11:45:58.661Z,12.97
2019-05-07T11:48:29.366Z,13.74
2019-05-07T11:51:07.397Z,14.40
2019-05-07T11:53:41.926Z,14.41
2019-05-07T11:56:13.933Z,14.44
2019-05-07T11:58:45.811Z,14.03
2019-05-07T12:01:19.243Z,14.03
2019-05-07T12:03:52.049Z,14.31
2019-05-07T12:06:24.136Z,14.33
2019-05-07T12:08:56.149Z,14.18
2019-05-07T12:11:28.114Z,14.07
2019-05-07T12:14:02.073Z,14.25
2019-05-07T12:16:47.745Z,14.25
2019-05-07T12:19:22.648Z,14.62
2019-05-07T12:21:54.443Z,14.81
2019-05-07T12:24:26.371Z,15.20
2019-05-07T12:26:58.246Z,15.79
2019-05-07T12:29:32.271Z,16.04
2019-05-07T12:32:29.346Z,15.77
2019-05-07T12:35:08.151Z,15.24
2019-05-07T12:37:42.394Z,15.07
2019-05-07T12:40:14.489Z,14.53
2019-05-07T12:42:46.496Z,14.38
2019-05-07T12:45:18.527Z,14.22
2019-05-07T12:47:52.942Z,13.99
2019-05-07T12:50:24.649Z,13.88
2019-05-07T12:53:03.825Z,14.18
2019-05-07T12:55:42.886Z,14.52
2019-05-07T12:58:15.106Z,14.50
2019-05-07T13:00:55.526Z,14.55
2019-05-07T13:03:49.350Z,14.54
2019-05-07T13:06:24.143Z,14.50
2019-05-07T13:08:56.010Z,14.28
2019-05-07T13:11:27.906Z,14.15
2019-05-07T13:14:01.998Z,14.07
2019-05-07T13:16:34.498Z,13.93
2019-05-07T13:19:06.399Z,13.90
2019-05-07T13:21:47.443Z,13.66
2019-05-07T13:24:14.756Z,13.71
2019-05-07T13:26:45.685Z,13.79
2019-05-07T13:29:18.659Z,13.79
2019-05-07T13:31:53.867Z,14.03
2019-05-07T13:34:25.157Z,14.05
2019-05-07T13:37:02.532Z,14.05
2019-05-07T13:39:46.143Z,14.13
2019-05-07T13:42:35.590Z,13.88
2019-05-07T13:45:15.475Z,13.80
2019-05-07T13:47:51.783Z,13.71
2019-05-07T13:50:24.289Z,13.73
2019-05-07T13:52:56.159Z,13.81
2019-05-07T13:55:28.014Z,13.87
2019-05-07T13:58:02.048Z,14.16
2019-05-07T14:00:40.149Z,14.03
2019-05-07T14:03:12.147Z,14.27
2019-05-07T14:05:44.498Z,14.59
2019-05-07T14:08:16.863Z,14.83
2019-05-07T14:10:48.792Z,14.93
2019-05-07T14:13:21.953Z,15.18
2019-05-07T14:16:06.957Z,15.14
2019-05-07T14:18:39.697Z,15.21
2019-05-07T14:21:13.000Z,15.14
2019-05-07T14:23:45.202Z,14.93
2019-05-07T14:26:17.078Z,14.57
2019-05-07T14:28:48.972Z,14.43
2019-05-07T14:31:20.899Z,14.15
2019-05-07T14:33:58.254Z,14.13
2019-05-07T14:36:56.957Z,14.15
2019-05-07T14:39:28.415Z,14.40
2019-05-07T14:42:02.710Z,14.38
2019-05-07T14:44:50.299Z,14.22
2019-05-07T14:47:22.556Z,13.89
2019-05-07T14:49:55.444Z,13.89
2019-05-07T14:52:33.045Z,13.86
2019-05-07T14:55:05.041Z,13.67
2019-05-07T14:57:41.911Z,14.26
2019-05-07T15:00:14.492Z,14.93
2019-05-07T15:02:46.400Z,15.64
2019-05-07T15:05:18.378Z,15.67
2019-05-07T15:07:50.412Z,16.26
2019-05-07T15:10:22.350Z,17.61
2019-05-07T15:12:54.254Z,17.08
2019-05-07T15:15:26.072Z,16.95
2019-05-07T15:18:15.814Z,16.36
2019-05-07T15:20:47.441Z,16.56
2019-05-07T15:23:31.867Z,17.97
2019-05-07T15:26:04.823Z,18.41
2019-05-07T15:28:39.212Z,19.57
2019-05-07T15:31:19.006Z,21.26
2019-05-07T15:33:52.298Z,22.31
2019-05-07T15:36:24.523Z,21.77
2019-05-07T15:38:56.405Z,22.36
2019-05-07T15:41:28.367Z,22.12
2019-05-07T15:44:02.715Z,21.65
2019-05-07T15:46:34.292Z,23.03
2019-05-07T15:49:06.207Z,23.27
2019-05-07T15:51:38.141Z,23.12
2019-05-07T15:54:10.145Z,23.69
2019-05-07T15:56:43.050Z,24.07
2019-05-07T15:59:22.816Z,24.76
2019-05-07T16:02:00.050Z,25.20
2019-05-07T16:04:32.889Z,25.54
2019-05-07T16:07:06.562Z,25.95
2019-05-07T16:09:44.689Z,24.85
2019-05-07T16:12:19.761Z,23.02
2019-05-07T16:14:52.509Z,22.91
2019-05-07T16:17:32.845Z,23.18
2019-05-07T16:20:05.134Z,21.91
2019-05-07T16:22:42.371Z,20.53
2019-05-07T16:25:14.299Z,19.62
2019-05-07T16:27:46.189Z,18.87
2019-05-07T16:30:18.187Z,18.13
2019-05-07T16:32:52.608Z,17.38
2019-05-07T16:35:23.601Z,16.78
2019-05-07T16:37:55.490Z,16.34
2019-05-07T16:40:28.529Z,16.32
2019-05-07T16:43:02.728Z,16.35
2019-05-07T16:45:34.900Z,16.33
2019-05-07T16:48:08.932Z,16.16
2019-05-07T16:50:42.265Z,15.58
2019-05-07T16:53:26.596Z,15.43
2019-05-07T16:55:48.291Z,15.25
2019-05-07T16:58:36.514Z,15.13
2019-05-07T17:01:10.041Z,14.98
2019-05-07T17:03:57.413Z,14.93
2019-05-07T17:06:29.303Z,14.65
2019-05-07T17:09:04.441Z,14.52
2019-05-07T17:11:37.797Z,14.29
2019-05-07T17:14:09.682Z,13.93
2019-05-07T17:16:42.015Z,13.89
2019-05-07T17:19:15.210Z,13.92
2019-05-07T17:21:47.265Z,13.72
2019-05-07T17:24:19.722Z,13.60
2019-05-07T17:26:51.842Z,13.41
2019-05-07T17:29:23.796Z,13.41
2019-05-07T17:31:55.772Z,13.38
2019-05-07T17:34:27.658Z,13.33
2019-05-07T17:37:01.839Z,13.33
2019-05-07T17:39:33.141Z,13.30
2019-05-07T17:42:05.123Z,13.14
2019-05-07T17:44:37.552Z,13.14
2019-05-07T17:47:12.773Z,13.18
2019-05-07T17:49:45.384Z,13.12
2019-05-07T17:52:17.305Z,13.12
2019-05-07T17:54:49.191Z,13.09
2019-05-07T17:57:22.759Z,13.01
2019-05-07T17:59:54.779Z,12.86
2019-05-07T18:02:48.342Z,12.90
2019-05-07T18:05:20.317Z,12.92
2019-05-07T18:07:52.802Z,12.79
2019-05-07T18:10:25.757Z,12.70
2019-05-07T18:12:57.658Z,12.67
2019-05-07T18:15:29.550Z,12.61
2019-05-07T18:18:06.595Z,12.66
2019-05-07T18:20:38.442Z,12.68
2019-05-07T18:23:16.423Z,12.70
2019-05-07T18:25:43.941Z,12.65
2019-05-07T18:28:17.090Z,12.61
2019-05-07T18:30:51.578Z,12.48
2019-05-07T18:33:49.038Z,12.48
2019-05-07T18:36:22.698Z,12.35
2019-05-07T18:38:54.774Z,12.34
2019-05-07T18:41:26.675Z,12.31
2019-05-07T18:44:08.968Z,12.28
2019-05-07T18:46:32.802Z,12.20
2019-05-07T18:49:05.020Z,12.24
2019-05-07T18:51:36.908Z,12.24
2019-05-07T18:54:08.791Z,12.19
2019-05-07T18:56:42.062Z,12.15
2019-05-07T18:59:15.009Z,12.08
2019-05-07T19:01:46.828Z,12.03
2019-05-07T19:04:18.727Z,11.95
2019-05-07T19:06:52.676Z,11.98
2019-05-07T19:09:27.466Z,11.89
2019-05-07T19:11:59.778Z,11.81
2019-05-07T19:14:33.349Z,11.69
2019-05-07T19:17:05.796Z,11.68
2019-05-07T19:19:38.133Z,11.63
2019-05-07T19:22:10.279Z,11.60
2019-05-07T19:24:47.819Z,11.46
2019-05-07T19:27:17.204Z,11.43
2019-05-07T19:29:49.367Z,11.35
2019-05-07T19:32:22.865Z,11.30
2019-05-07T19:34:54.933Z,11.27
2019-05-07T19:37:27.182Z,11.22
2019-05-07T19:39:59.135Z,11.15
2019-05-07T19:42:31.795Z,11.10
2019-05-07T19:45:03.932Z,11.01
2019-05-07T19:47:36.821Z,10.90
2019-05-07T19:50:12.410Z,10.78
2019-05-07T19:52:45.209Z,10.79
2019-05-07T19:55:17.206Z,10.59
2019-05-07T19:58:02.440Z,10.49
2019-05-07T20:00:34.422Z,10.44
2019-05-07T20:03:06.385Z,10.36
2019-05-07T20:05:39.352Z,10.30
2019-05-07T20:08:12.056Z,10.29
2019-05-07T20:10:51.879Z,10.25
2019-05-07T20:13:23.899Z,10.22
2019-05-07T20:16:04.952Z,10.13
2019-05-07T20:18:37.125Z,10.08
2019-05-07T20:21:08.935Z,10.01
2019-05-07T20:23:42.611Z,9.80
2019-05-07T20:26:14.707Z,9.82
2019-05-07T20:28:47.609Z,9.81
2019-05-07T20:31:19.498Z,9.78
2019-05-07T20:33:53.019Z,9.74
2019-05-07T20:36:25.139Z,9.66
2019-05-07T20:38:57.028Z,9.53
2019-05-07T20:41:28.891Z,9.48
2019-05-07T20:44:02.875Z,9.36
2019-05-07T20:46:34.562Z,9.26
2019-05-07T20:49:06.401Z,9.20
2019-05-07T20:51:38.243Z,9.11
2019-05-07T20:54:16.284Z,9.05
2019-05-07T20:56:54.515Z,9.04
2019-05-07T20:59:26.320Z,9.04
2019-05-07T21:01:58.267Z,9.00
2019-05-07T21:04:32.838Z,8.89
2019-05-07T21:07:04.026Z,8.82
2019-05-07T21:09:35.916Z,8.80
2019-05-07T21:12:08.172Z,8.73
2019-05-07T21:14:41.815Z,8.64
2019-05-07T21:17:13.738Z,8.61
2019-05-07T21:19:48.740Z,8.50
2019-05-07T21:22:22.723Z,8.41
2019-05-07T21:24:54.448Z,8.21
2019-05-07T21:27:26.418Z,8.18
2019-05-07T21:29:58.285Z,8.06
2019-05-07T21:32:32.382Z,7.97
2019-05-07T21:35:03.619Z,7.93
2019-05-07T21:37:35.541Z,7.89
2019-05-07T21:40:08.036Z,7.86
2019-05-07T21:42:40.100Z,7.73
2019-05-07T21:45:12.391Z,7.76
2019-05-07T21:47:45.438Z,7.72
2019-05-07T21:50:17.558Z,7.75
2019-05-07T21:52:54.477Z,7.59
2019-05-07T21:55:35.778Z,7.56
2019-05-07T21:58:33.354Z,7.51
2019-05-07T22:01:22.254Z,7.50
2019-05-07T22:03:59.127Z,7.43
2019-05-07T22:06:31.061Z,7.48
2019-05-07T22:09:02.916Z,7.38
2019-05-07T22:11:36.428Z,7.31
2019-05-07T22:14:08.432Z,7.29
2019-05-07T22:16:40.300Z,7.25
2019-05-07T22:19:12.402Z,7.23
2019-05-07T22:21:44.683Z,7.17
2019-05-07T22:24:16.588Z,7.01
2019-05-07T22:26:48.617Z,6.82
2019-05-07T22:29:22.591Z,6.77
2019-05-07T22:32:04.337Z,6.71
2019-05-07T22:34:58.030Z,6.51
2019-05-07T22:37:32.414Z,6.53
2019-05-07T22:40:06.616Z,6.44
2019-05-07T22:42:40.448Z,6.46
2019-05-07T22:45:12.502Z,6.45
2019-05-07T22:47:44.464Z,6.48
2019-05-07T22:50:17.033Z,6.44
2019-05-07T22:52:48.915Z,6.43
2019-05-07T22:55:21.831Z,6.33
2019-05-07T22:58:01.837Z,6.42
2019-05-07T23:00:36.813Z,6.41
2019-05-07T23:03:08.690Z,6.43
2019-05-07T23:05:42.224Z,6.38
2019-05-07T23:08:14.431Z,6.35
2019-05-07T23:10:46.669Z,6.30
2019-05-07T23:13:18.725Z,6.23
2019-05-07T23:15:51.770Z,6.18
2019-05-07T23:18:24.144Z,6.15
2019-05-07T23:20:56.139Z,6.08
2019-05-07T23:23:27.954Z,6.06
2019-05-07T23:25:59.735Z,6.03
2019-05-07T23:28:32.347Z,6.01
2019-05-07T23:31:04.195Z,5.94
2019-05-07T23:33:36.069Z,5.96
2019-05-07T23:36:08.045Z,5.98
2019-05-07T23:38:39.933Z,6.02
2019-05-07T23:41:22.164Z,5.92
2019-05-07T23:44:12.470Z,5.90
2019-05-07T23:46:45.810Z,5.86
2019-05-07T23:49:17.675Z,5.81
2019-05-07T23:51:49.561Z,5.82
2019-05-07T23:54:23.082Z,5.77
2019-05-07T23:57:06.050Z,5.66
2019-05-07T23:59:29.606Z,5.64
